Villa del Pilar, Puerto Rico
Current Conditions -  °F | °C
As of 1:53 AM on Tuesday 27 Jan 2015 (Local Time) from TJNR Reporting Station
Clear Clear  
Wind Chill: 23°   Ceiling: Unl
Heat Index: 23°   Visibility: 10mi
Dew Point: 21°   Wind: 5mph
Humidity: 90%   Direction: 210°SSW
Pressure: 30.02"   Gusts: NA
Location:  18.2667°N, 65.6476°W
Report Text: TJNR 270553Z AUTO 21004KT 10SM CLR 23/21 A3002 RMK AO2 SLP165 T02280211 10256 20222 58013 $
Loading
Personal Weather Stations






























Interactive Weather Map New forecast layout! Learn more

10-Day Weather Forecast

Advertisements
Track Severe Weather on mobile